sensor_id;sensor_type;location;lat;lon;timestamp;pressure;altitude;pressure_sealevel;temperature;humidity
15750;BME280;7976;52.526;13.326;2023-04-29T00:01:25;100510.53;;;13.46;77.49
15750;BME280;7976;52.526;13.326;2023-04-29T00:03:54;100501.00;;;13.43;77.33
15750;BME280;7976;52.526;13.326;2023-04-29T00:06:21;100489.81;;;13.40;77.51
15750;BME280;7976;52.526;13.326;2023-04-29T00:08:48;100486.44;;;13.38;77.75
15750;BME280;7976;52.526;13.326;2023-04-29T00:11:16;100479.44;;;13.37;77.91
15750;BME280;7976;52.526;13.326;2023-04-29T00:13:43;100471.47;;;13.38;77.58
15750;BME280;7976;52.526;13.326;2023-04-29T00:16:10;100476.81;;;13.37;77.62
15750;BME280;7976;52.526;13.326;2023-04-29T00:18:37;100485.66;;;13.36;77.72
15750;BME280;7976;52.526;13.326;2023-04-29T00:21:05;100483.03;;;13.36;77.68
15750;BME280;7976;52.526;13.326;2023-04-29T00:23:32;100484.78;;;13.35;77.65
15750;BME280;7976;52.526;13.326;2023-04-29T00:25:59;100487.34;;;13.37;77.81
15750;BME280;7976;52.526;13.326;2023-04-29T00:28:26;100481.31;;;13.35;77.59
15750;BME280;7976;52.526;13.326;2023-04-29T00:30:53;100481.31;;;13.35;77.83
15750;BME280;7976;52.526;13.326;2023-04-29T00:33:20;100476.06;;;13.35;77.67
15750;BME280;7976;52.526;13.326;2023-04-29T00:35:47;100479.63;;;13.34;77.83
15750;BME280;7976;52.526;13.326;2023-04-29T00:38:15;100470.97;;;13.32;77.91
15750;BME280;7976;52.526;13.326;2023-04-29T00:40:43;100488.50;;;13.31;78.01
15750;BME280;7976;52.526;13.326;2023-04-29T00:43:10;100487.69;;;13.31;77.85
15750;BME280;7976;52.526;13.326;2023-04-29T00:45:37;100487.75;;;13.29;77.92
15750;BME280;7976;52.526;13.326;2023-04-29T00:48:04;100485.97;;;13.30;78.15
15750;BME280;7976;52.526;13.326;2023-04-29T00:50:31;100492.00;;;13.32;78.25
15750;BME280;7976;52.526;13.326;2023-04-29T00:52:59;100485.03;;;13.31;78.06
15750;BME280;7976;52.526;13.326;2023-04-29T00:55:28;100486.72;;;13.32;78.03
15750;BME280;7976;52.526;13.326;2023-04-29T00:57:56;100492.00;;;13.32;78.21
15750;BME280;7976;52.526;13.326;2023-04-29T01:00:23;100486.72;;;13.32;78.15
15750;BME280;7976;52.526;13.326;2023-04-29T01:02:52;100462.16;;;13.33;78.17
15750;BME280;7976;52.526;13.326;2023-04-29T01:05:21;100458.00;;;13.29;78.17
15750;BME280;7976;52.526;13.326;2023-04-29T01:08:07;100453.97;;;13.22;78.47
15750;BME280;7976;52.526;13.326;2023-04-29T01:10:48;100447.59;;;13.10;79.54
15750;BME280;7976;52.526;13.326;2023-04-29T01:13:30;100465.97;;;12.93;80.71
15750;BME280;7976;52.526;13.326;2023-04-29T01:16:03;100466.59;;;12.81;81.82
15750;BME280;7976;52.526;13.326;2023-04-29T01:18:38;100477.50;;;12.74;82.93
15750;BME280;7976;52.526;13.326;2023-04-29T01:21:08;100477.66;;;12.71;83.88
15750;BME280;7976;52.526;13.326;2023-04-29T01:23:36;100475.84;;;12.71;85.15
15750;BME280;7976;52.526;13.326;2023-04-29T01:26:03;100479.50;;;12.69;85.92
15750;BME280;7976;52.526;13.326;2023-04-29T01:29:01;100478.78;;;12.65;86.69
15750;BME280;7976;52.526;13.326;2023-04-29T01:31:43;100480.47;;;12.66;87.54
15750;BME280;7976;52.526;13.326;2023-04-29T01:34:22;100470.84;;;12.67;88.05
15750;BME280;7976;52.526;13.326;2023-04-29T01:37:09;100461.19;;;12.67;88.55
15750;BME280;7976;52.526;13.326;2023-04-29T01:39:59;100454.31;;;12.64;89.00
15750;BME280;7976;52.526;13.326;2023-04-29T01:42:38;100455.25;;;12.63;88.88
15750;BME280;7976;52.526;13.326;2023-04-29T01:45:14;100455.53;;;12.57;89.01
15750;BME280;7976;52.526;13.326;2023-04-29T01:47:42;100451.38;;;12.53;89.31
15750;BME280;7976;52.526;13.326;2023-04-29T01:50:10;100458.47;;;12.51;89.27
15750;BME280;7976;52.526;13.326;2023-04-29T01:52:38;100459.34;;;12.52;89.67
15750;BME280;7976;52.526;13.326;2023-04-29T01:55:07;100466.34;;;12.51;89.69
15750;BME280;7976;52.526;13.326;2023-04-29T01:57:46;100455.00;;;12.51;89.89
15750;BME280;7976;52.526;13.326;2023-04-29T02:00:27;100457.69;;;12.49;89.94
15750;BME280;7976;52.526;13.326;2023-04-29T02:02:54;100464.88;;;12.46;89.88
15750;BME280;7976;52.526;13.326;2023-04-29T02:05:27;100463.34;;;12.42;90.25
15750;BME280;7976;52.526;13.326;2023-04-29T02:07:57;100454.78;;;12.38;90.76
15750;BME280;7976;52.526;13.326;2023-04-29T02:10:25;100461.69;;;12.39;90.86
15750;BME280;7976;52.526;13.326;2023-04-29T02:13:01;100460.03;;;12.38;91.10
15750;BME280;7976;52.526;13.326;2023-04-29T02:15:28;100455.66;;;12.37;91.27
15750;BME280;7976;52.526;13.326;2023-04-29T02:17:55;100452.22;;;12.37;91.58
15750;BME280;7976;52.526;13.326;2023-04-29T02:20:22;100451.22;;;12.39;91.81
15750;BME280;7976;52.526;13.326;2023-04-29T02:22:49;100443.19;;;12.42;92.00
15750;BME280;7976;52.526;13.326;2023-04-29T02:25:16;100447.44;;;12.45;91.94
15750;BME280;7976;52.526;13.326;2023-04-29T02:27:44;100437.03;;;12.43;91.95
15750;BME280;7976;52.526;13.326;2023-04-29T02:30:11;100436.16;;;12.43;92.21
15750;BME280;7976;52.526;13.326;2023-04-29T02:32:39;100436.88;;;12.46;92.33
15750;BME280;7976;52.526;13.326;2023-04-29T02:35:07;100438.53;;;12.47;92.25
15750;BME280;7976;52.526;13.326;2023-04-29T02:37:34;100444.72;;;12.46;92.39
15750;BME280;7976;52.526;13.326;2023-04-29T02:40:01;100441.25;;;12.46;92.84
15750;BME280;7976;52.526;13.326;2023-04-29T02:42:30;100447.13;;;12.51;93.14
15750;BME280;7976;52.526;13.326;2023-04-29T02:44:58;100442.72;;;12.51;93.27
15750;BME280;7976;52.526;13.326;2023-04-29T02:47:25;100443.66;;;12.50;93.25
15750;BME280;7976;52.526;13.326;2023-04-29T02:49:52;100442.81;;;12.50;93.27
15750;BME280;7976;52.526;13.326;2023-04-29T02:52:19;100444.50;;;12.51;93.41
15750;BME280;7976;52.526;13.326;2023-04-29T02:54:47;100438.41;;;12.50;93.54
15750;BME280;7976;52.526;13.326;2023-04-29T02:57:13;100438.34;;;12.52;93.93
15750;BME280;7976;52.526;13.326;2023-04-29T02:59:40;100440.72;;;12.56;94.01
15750;BME280;7976;52.526;13.326;2023-04-29T03:02:08;100442.50;;;12.56;93.88
15750;BME280;7976;52.526;13.326;2023-04-29T03:04:35;100434.69;;;12.54;94.11
15750;BME280;7976;52.526;13.326;2023-04-29T03:07:04;100437.41;;;12.53;94.24
15750;BME280;7976;52.526;13.326;2023-04-29T03:09:32;100440.03;;;12.53;94.29
15750;BME280;7976;52.526;13.326;2023-04-29T03:12:00;100437.31;;;12.54;94.37
15750;BME280;7976;52.526;13.326;2023-04-29T03:14:27;100438.25;;;12.53;94.04
15750;BME280;7976;52.526;13.326;2023-04-29T03:16:54;100432.06;;;12.54;94.32
15750;BME280;7976;52.526;13.326;2023-04-29T03:19:24;100439.88;;;12.56;94.46
15750;BME280;7976;52.526;13.326;2023-04-29T03:21:50;100435.63;;;12.53;94.27
15750;BME280;7976;52.526;13.326;2023-04-29T03:24:17;100433.16;;;12.50;94.15
15750;BME280;7976;52.526;13.326;2023-04-29T03:26:47;100434.16;;;12.48;94.60
15750;BME280;7976;52.526;13.326;2023-04-29T03:29:19;100430.53;;;12.50;94.80
15750;BME280;7976;52.526;13.326;2023-04-29T03:31:46;100427.91;;;12.50;94.77
15750;BME280;7976;52.526;13.326;2023-04-29T03:34:13;100434.69;;;12.54;94.93
15750;BME280;7976;52.526;13.326;2023-04-29T03:36:46;100433.72;;;12.57;95.09
15750;BME280;7976;52.526;13.326;2023-04-29T03:39:13;100426.75;;;12.56;94.83
15750;BME280;7976;52.526;13.326;2023-04-29T03:41:41;100432.84;;;12.56;94.98
15750;BME280;7976;52.526;13.326;2023-04-29T03:44:09;100432.84;;;12.56;95.18
15750;BME280;7976;52.526;13.326;2023-04-29T03:46:36;100429.44;;;12.54;95.16
15750;BME280;7976;52.526;13.326;2023-04-29T03:49:02;100431.16;;;12.55;95.47
15750;BME280;7976;52.526;13.326;2023-04-29T03:51:29;100432.78;;;12.58;95.32
15750;BME280;7976;52.526;13.326;2023-04-29T03:54:09;100429.28;;;12.57;95.35
15750;BME280;7976;52.526;13.326;2023-04-29T03:56:36;100431.78;;;12.60;95.44
15750;BME280;7976;52.526;13.326;2023-04-29T03:59:04;100429.84;;;12.64;95.58
15750;BME280;7976;52.526;13.326;2023-04-29T04:01:31;100430.53;;;12.68;95.57
15750;BME280;7976;52.526;13.326;2023-04-29T04:03:58;100427.97;;;12.66;95.54
15750;BME280;7976;52.526;13.326;2023-04-29T04:06:24;100435.78;;;12.68;95.43
15750;BME280;7976;52.526;13.326;2023-04-29T04:08:51;100436.88;;;12.63;95.38
15750;BME280;7976;52.526;13.326;2023-04-29T04:11:25;100433.38;;;12.63;95.85
15750;BME280;7976;52.526;13.326;2023-04-29T04:13:58;100441.19;;;12.64;96.04
15750;BME280;7976;52.526;13.326;2023-04-29T04:16:25;100441.88;;;12.68;96.09
15750;BME280;7976;52.526;13.326;2023-04-29T04:18:52;100445.28;;;12.70;95.96
15750;BME280;7976;52.526;13.326;2023-04-29T04:21:18;100442.66;;;12.70;95.90
15750;BME280;7976;52.526;13.326;2023-04-29T04:23:53;100444.25;;;12.73;96.39
15750;BME280;7976;52.526;13.326;2023-04-29T04:26:22;100435.47;;;12.74;96.25
15750;BME280;7976;52.526;13.326;2023-04-29T04:29:22;100440.66;;;12.75;96.35
15750;BME280;7976;52.526;13.326;2023-04-29T04:31:58;100447.59;;;12.76;96.28
15750;BME280;7976;52.526;13.326;2023-04-29T04:34:25;100443.97;;;12.79;96.46
15750;BME280;7976;52.526;13.326;2023-04-29T04:36:54;100443.97;;;12.79;96.32
15750;BME280;7976;52.526;13.326;2023-04-29T04:39:21;100443.03;;;12.80;96.35
15750;BME280;7976;52.526;13.326;2023-04-29T04:41:48;100451.75;;;12.80;96.47
15750;BME280;7976;52.526;13.326;2023-04-29T04:44:15;100443.97;;;12.79;96.62
15750;BME280;7976;52.526;13.326;2023-04-29T04:47:02;100447.38;;;12.81;96.67
15750;BME280;7976;52.526;13.326;2023-04-29T04:49:48;100444.75;;;12.81;96.72
15750;BME280;7976;52.526;13.326;2023-04-29T04:52:19;100448.97;;;12.83;96.65
15750;BME280;7976;52.526;13.326;2023-04-29T04:54:53;100451.53;;;12.85;96.78
15750;BME280;7976;52.526;13.326;2023-04-29T04:57:23;100450.63;;;12.86;96.79
15750;BME280;7976;52.526;13.326;2023-04-29T04:59:50;100446.97;;;12.88;96.85
15750;BME280;7976;52.526;13.326;2023-04-29T05:02:18;100451.31;;;12.89;96.83
15750;BME280;7976;52.526;13.326;2023-04-29T05:04:45;100453.84;;;12.91;97.12
15750;BME280;7976;52.526;13.326;2023-04-29T05:07:14;100453.00;;;12.90;97.10
15750;BME280;7976;52.526;13.326;2023-04-29T05:09:57;100454.94;;;12.87;97.05
15750;BME280;7976;52.526;13.326;2023-04-29T05:12:26;100455.88;;;12.86;97.20
15750;BME280;7976;52.526;13.326;2023-04-29T05:14:55;100457.56;;;12.87;97.34
15750;BME280;7976;52.526;13.326;2023-04-29T05:17:25;100455.00;;;12.85;97.42
15750;BME280;7976;52.526;13.326;2023-04-29T05:19:52;100463.88;;;12.83;97.74
15750;BME280;7976;52.526;13.326;2023-04-29T05:22:19;100456.16;;;12.80;97.97
15750;BME280;7976;52.526;13.326;2023-04-29T05:24:45;100459.56;;;12.82;98.13
15750;BME280;7976;52.526;13.326;2023-04-29T05:27:12;100461.34;;;12.81;98.32
15750;BME280;7976;52.526;13.326;2023-04-29T05:29:39;100462.97;;;12.84;98.66
15750;BME280;7976;52.526;13.326;2023-04-29T05:32:06;100464.56;;;12.86;98.77
15750;BME280;7976;52.526;13.326;2023-04-29T05:34:34;100469.69;;;12.89;98.68
15750;BME280;7976;52.526;13.326;2023-04-29T05:37:01;100465.28;;;12.90;98.88
15750;BME280;7976;52.526;13.326;2023-04-29T05:39:29;100463.50;;;12.90;98.88
15750;BME280;7976;52.526;13.326;2023-04-29T05:42:06;100466.91;;;12.92;98.94
15750;BME280;7976;52.526;13.326;2023-04-29T05:44:40;100471.22;;;12.93;98.74
15750;BME280;7976;52.526;13.326;2023-04-29T05:47:07;100474.53;;;12.97;99.24
15750;BME280;7976;52.526;13.326;2023-04-29T05:49:35;100478.81;;;12.99;99.16
15750;BME280;7976;52.526;13.326;2023-04-29T05:52:02;100470.84;;;13.01;99.01
15750;BME280;7976;52.526;13.326;2023-04-29T05:54:32;100474.38;;;13.00;99.28
15750;BME280;7976;52.526;13.326;2023-04-29T05:57:00;100481.44;;;12.99;99.25
15750;BME280;7976;52.526;13.326;2023-04-29T05:59:28;100482.25;;;13.00;99.45
15750;BME280;7976;52.526;13.326;2023-04-29T06:01:55;100481.50;;;12.98;99.42
15750;BME280;7976;52.526;13.326;2023-04-29T06:04:22;100481.50;;;12.98;99.61
15750;BME280;7976;52.526;13.326;2023-04-29T06:07:19;100481.44;;;12.99;100.00
15750;BME280;7976;52.526;13.326;2023-04-29T06:09:57;100487.50;;;13.00;100.00
15750;BME280;7976;52.526;13.326;2023-04-29T06:12:25;100486.59;;;13.01;99.99
15750;BME280;7976;52.526;13.326;2023-04-29T06:14:52;100491.72;;;13.04;100.00
15750;BME280;7976;52.526;13.326;2023-04-29T06:17:19;100489.88;;;13.06;100.00
15750;BME280;7976;52.526;13.326;2023-04-29T06:19:46;100495.97;;;13.06;99.94
15750;BME280;7976;52.526;13.326;2023-04-29T06:22:12;100495.13;;;13.06;100.00
15750;BME280;7976;52.526;13.326;2023-04-29T06:24:48;100498.66;;;13.05;100.00
15750;BME280;7976;52.526;13.326;2023-04-29T06:27:21;100502.22;;;13.04;100.00
15750;BME280;7976;52.526;13.326;2023-04-29T06:29:48;100502.22;;;13.04;100.00
15750;BME280;7976;52.526;13.326;2023-04-29T06:32:15;100509.19;;;13.05;100.00
15750;BME280;7976;52.526;13.326;2023-04-29T06:34:43;100509.94;;;13.07;100.00
15750;BME280;7976;52.526;13.326;2023-04-29T06:37:26;100516.94;;;13.08;100.00
15750;BME280;7976;52.526;13.326;2023-04-29T06:40:07;100517.84;;;13.07;100.00
15750;BME280;7976;52.526;13.326;2023-04-29T06:42:52;100518.84;;;13.04;100.00
15750;BME280;7976;52.526;13.326;2023-04-29T06:45:45;100525.09;;;13.02;100.00
15750;BME280;7976;52.526;13.326;2023-04-29T06:48:28;100532.16;;;13.00;100.00
15750;BME280;7976;52.526;13.326;2023-04-29T06:50:57;100537.44;;;13.00;100.00
15750;BME280;7976;52.526;13.326;2023-04-29T06:53:26;100533.19;;;12.97;100.00
15750;BME280;7976;52.526;13.326;2023-04-29T06:55:54;100540.22;;;12.97;100.00
15750;BME280;7976;52.526;13.326;2023-04-29T06:58:21;100538.53;;;12.96;100.00
15750;BME280;7976;52.526;13.326;2023-04-29T07:00:49;100537.59;;;12.97;100.00
15750;BME280;7976;52.526;13.326;2023-04-29T07:03:17;100543.00;;;12.94;100.00
15750;BME280;7976;52.526;13.326;2023-04-29T07:05:44;100541.31;;;12.93;100.00
15750;BME280;7976;52.526;13.326;2023-04-29T07:08:12;100549.31;;;12.90;100.00
15750;BME280;7976;52.526;13.326;2023-04-29T07:10:39;100541.59;;;12.87;100.00
15750;BME280;7976;52.526;13.326;2023-04-29T07:13:08;100554.72;;;12.87;100.00
15750;BME280;7976;52.526;13.326;2023-04-29T07:15:36;100560.13;;;12.84;100.00
15750;BME280;7976;52.526;13.326;2023-04-29T07:18:03;100559.19;;;12.85;100.00
15750;BME280;7976;52.526;13.326;2023-04-29T07:20:30;100562.69;;;12.85;100.00
15750;BME280;7976;52.526;13.326;2023-04-29T07:22:57;100564.31;;;12.88;100.00
15750;BME280;7976;52.526;13.326;2023-04-29T07:25:25;100574.84;;;12.88;100.00
15750;BME280;7976;52.526;13.326;2023-04-29T07:27:54;100573.97;;;12.87;100.00
15750;BME280;7976;52.526;13.326;2023-04-29T07:30:25;100578.53;;;12.84;100.00
15750;BME280;7976;52.526;13.326;2023-04-29T07:32:52;100575.97;;;12.82;100.00
15750;BME280;7976;52.526;13.326;2023-04-29T07:35:19;100583.06;;;12.80;100.00
15750;BME280;7976;52.526;13.326;2023-04-29T07:37:46;100592.88;;;12.77;100.00
15750;BME280;7976;52.526;13.326;2023-04-29T07:40:12;100592.25;;;12.72;99.99
15750;BME280;7976;52.526;13.326;2023-04-29T07:42:39;100591.31;;;12.73;100.00
15750;BME280;7976;52.526;13.326;2023-04-29T07:45:07;100600.81;;;12.75;100.00
15750;BME280;7976;52.526;13.326;2023-04-29T07:47:35;100603.53;;;12.74;99.65
15750;BME280;7976;52.526;13.326;2023-04-29T07:50:03;100612.47;;;12.70;99.57
15750;BME280;7976;52.526;13.326;2023-04-29T07:52:30;100616.19;;;12.66;99.48
15750;BME280;7976;52.526;13.326;2023-04-29T07:54:57;100619.06;;;12.59;99.52
15750;BME280;7976;52.526;13.326;2023-04-29T07:57:23;100632.34;;;12.56;99.63
15750;BME280;7976;52.526;13.326;2023-04-29T07:59:51;100632.34;;;12.56;99.78
15750;BME280;7976;52.526;13.326;2023-04-29T08:02:18;100629.66;;;12.58;99.87
15750;BME280;7976;52.526;13.326;2023-04-29T08:04:47;100632.13;;;12.61;99.33
15750;BME280;7976;52.526;13.326;2023-04-29T08:07:16;100650.44;;;12.62;99.44
15750;BME280;7976;52.526;13.326;2023-04-29T08:09:43;100646.03;;;12.63;99.21
15750;BME280;7976;52.526;13.326;2023-04-29T08:12:10;100660.66;;;12.69;99.32
15750;BME280;7976;52.526;13.326;2023-04-29T08:14:39;100659.94;;;12.65;98.92
15750;BME280;7976;52.526;13.326;2023-04-29T08:17:06;100666.19;;;12.62;98.77
15750;BME280;7976;52.526;13.326;2023-04-29T08:19:33;100666.25;;;12.61;98.54
15750;BME280;7976;52.526;13.326;2023-04-29T08:22:02;100674.66;;;12.50;98.16
15750;BME280;7976;52.526;13.326;2023-04-29T08:24:29;100675.84;;;12.43;97.99
15750;BME280;7976;52.526;13.326;2023-04-29T08:26:58;100687.25;;;12.42;98.13
15750;BME280;7976;52.526;13.326;2023-04-29T08:29:25;100684.63;;;12.42;98.11
15750;BME280;7976;52.526;13.326;2023-04-29T08:31:52;100690.66;;;12.44;97.73
15750;BME280;7976;52.526;13.326;2023-04-29T08:34:19;100693.13;;;12.47;97.77
15750;BME280;7976;52.526;13.326;2023-04-29T08:36:45;100701.88;;;12.48;97.62
15750;BME280;7976;52.526;13.326;2023-04-29T08:39:14;100697.63;;;12.45;97.42
15750;BME280;7976;52.526;13.326;2023-04-29T08:41:41;100708.78;;;12.50;97.45
15750;BME280;7976;52.526;13.326;2023-04-29T08:44:09;100713.16;;;12.50;97.37
15750;BME280;7976;52.526;13.326;2023-04-29T08:46:37;100714.28;;;12.44;97.13
15750;BME280;7976;52.526;13.326;2023-04-29T08:49:04;100723.97;;;12.44;96.92
15750;BME280;7976;52.526;13.326;2023-04-29T08:51:31;100716.91;;;12.44;97.23
15750;BME280;7976;52.526;13.326;2023-04-29T08:53:59;100722.16;;;12.44;96.94
15750;BME280;7976;52.526;13.326;2023-04-29T08:56:30;100728.19;;;12.46;96.71
15750;BME280;7976;52.526;13.326;2023-04-29T08:58:57;100731.69;;;12.47;96.17
15750;BME280;7976;52.526;13.326;2023-04-29T09:01:27;100746.56;;;12.46;96.27
15750;BME280;7976;52.526;13.326;2023-04-29T09:04:05;100745.59;;;12.49;96.61
15750;BME280;7976;52.526;13.326;2023-04-29T09:06:35;100758.66;;;12.50;96.06
15750;BME280;7976;52.526;13.326;2023-04-29T09:09:02;100758.66;;;12.50;95.96
15750;BME280;7976;52.526;13.326;2023-04-29T09:11:31;100759.41;;;12.52;95.97
15750;BME280;7976;52.526;13.326;2023-04-29T09:14:00;100763.75;;;12.53;95.59
15750;BME280;7976;52.526;13.326;2023-04-29T09:16:29;100762.97;;;12.51;95.64
15750;BME280;7976;52.526;13.326;2023-04-29T09:18:55;100771.00;;;12.48;95.35
15750;BME280;7976;52.526;13.326;2023-04-29T09:21:25;100768.44;;;12.47;95.53
15750;BME280;7976;52.526;13.326;2023-04-29T09:23:55;100771.88;;;12.47;95.28
15750;BME280;7976;52.526;13.326;2023-04-29T09:26:23;100778.00;;;12.48;95.37
15750;BME280;7976;52.526;13.326;2023-04-29T09:29:08;100781.63;;;12.45;94.94
15750;BME280;7976;52.526;13.326;2023-04-29T09:31:37;100785.09;;;12.46;94.99
15750;BME280;7976;52.526;13.326;2023-04-29T09:34:04;100791.97;;;12.48;95.04
15750;BME280;7976;52.526;13.326;2023-04-29T09:36:42;100792.56;;;12.55;94.82
15750;BME280;7976;52.526;13.326;2023-04-29T09:39:12;100796.16;;;12.52;94.67
15750;BME280;7976;52.526;13.326;2023-04-29T09:41:59;100802.19;;;12.54;94.62
15750;BME280;7976;52.526;13.326;2023-04-29T09:44:30;100803.94;;;12.55;94.34
15750;BME280;7976;52.526;13.326;2023-04-29T09:47:02;100818.03;;;12.53;93.97
15750;BME280;7976;52.526;13.326;2023-04-29T09:49:31;100819.03;;;12.50;94.12
15750;BME280;7976;52.526;13.326;2023-04-29T09:52:02;100823.34;;;12.51;93.92
15750;BME280;7976;52.526;13.326;2023-04-29T09:54:32;100820.94;;;12.47;93.70
15750;BME280;7976;52.526;13.326;2023-04-29T09:57:02;100830.72;;;12.43;93.58
15750;BME280;7976;52.526;13.326;2023-04-29T09:59:33;100842.38;;;12.36;93.40
15750;BME280;7976;52.526;13.326;2023-04-29T10:02:05;100840.75;;;12.34;93.05
15750;BME280;7976;52.526;13.326;2023-04-29T10:04:38;100841.50;;;12.36;92.95
15750;BME280;7976;52.526;13.326;2023-04-29T10:07:07;100847.41;;;12.41;92.72
15750;BME280;7976;52.526;13.326;2023-04-29T10:09:38;100848.41;;;12.38;92.29
15750;BME280;7976;52.526;13.326;2023-04-29T10:12:06;100854.53;;;12.39;92.30
15750;BME280;7976;52.526;13.326;2023-04-29T10:14:46;100862.19;;;12.43;92.49
15750;BME280;7976;52.526;13.326;2023-04-29T10:17:21;100851.34;;;12.51;92.30
15750;BME280;7976;52.526;13.326;2023-04-29T10:20:01;100858.19;;;12.55;92.04
15750;BME280;7976;52.526;13.326;2023-04-29T10:22:37;100863.22;;;12.59;91.99
15750;BME280;7976;52.526;13.326;2023-04-29T10:25:09;100867.38;;;12.65;91.78
15750;BME280;7976;52.526;13.326;2023-04-29T10:27:38;100865.47;;;12.69;91.58
15750;BME280;7976;52.526;13.326;2023-04-29T10:30:11;100868.09;;;12.69;91.43
15750;BME280;7976;52.526;13.326;2023-04-29T10:32:39;100873.72;;;12.80;91.42
15750;BME280;7976;52.526;13.326;2023-04-29T10:35:09;100869.84;;;12.88;90.84
15750;BME280;7976;52.526;13.326;2023-04-29T10:37:38;100877.66;;;12.90;90.43
15750;BME280;7976;52.526;13.326;2023-04-29T10:40:11;100878.50;;;12.90;90.04
15750;BME280;7976;52.526;13.326;2023-04-29T10:42:44;100888.16;;;12.90;89.67
15750;BME280;7976;52.526;13.326;2023-04-29T10:45:22;100885.59;;;12.88;89.53
15750;BME280;7976;52.526;13.326;2023-04-29T10:48:12;100878.72;;;12.86;89.23
15750;BME280;7976;52.526;13.326;2023-04-29T10:51:00;100886.72;;;12.83;89.40
15750;BME280;7976;52.526;13.326;2023-04-29T10:53:28;100892.25;;;12.77;89.26
15750;BME280;7976;52.526;13.326;2023-04-29T10:55:59;100887.94;;;12.76;89.44
15750;BME280;7976;52.526;13.326;2023-04-29T10:58:41;100890.03;;;12.88;89.23
15750;BME280;7976;52.526;13.326;2023-04-29T11:01:12;100895.06;;;13.12;88.70
15750;BME280;7976;52.526;13.326;2023-04-29T11:03:49;100898.34;;;13.36;88.09
15750;BME280;7976;52.526;13.326;2023-04-29T11:06:22;100895.16;;;13.48;87.24
15750;BME280;7976;52.526;13.326;2023-04-29T11:09:00;100904.97;;;13.44;86.95
15750;BME280;7976;52.526;13.326;2023-04-29T11:11:43;100907.03;;;13.38;86.48
15750;BME280;7976;52.526;13.326;2023-04-29T11:14:14;100911.34;;;13.39;86.54
15750;BME280;7976;52.526;13.326;2023-04-29T11:16:52;100909.69;;;13.36;86.08
15750;BME280;7976;52.526;13.326;2023-04-29T11:19:20;100903.94;;;13.47;86.01
15750;BME280;7976;52.526;13.326;2023-04-29T11:22:08;100913.09;;;13.75;84.87
15750;BME280;7976;52.526;13.326;2023-04-29T11:24:47;100914.41;;;14.03;84.04
15750;BME280;7976;52.526;13.326;2023-04-29T11:27:15;100923.56;;;14.13;82.89
15750;BME280;7976;52.526;13.326;2023-04-29T11:29:44;100916.59;;;14.12;82.01
15750;BME280;7976;52.526;13.326;2023-04-29T11:32:13;100920.00;;;14.14;81.90
15750;BME280;7976;52.526;13.326;2023-04-29T11:34:40;100932.97;;;14.18;81.79
15750;BME280;7976;52.526;13.326;2023-04-29T11:37:09;100929.09;;;14.25;81.35
15750;BME280;7976;52.526;13.326;2023-04-29T11:39:36;100930.97;;;14.23;80.91
15750;BME280;7976;52.526;13.326;2023-04-29T11:42:04;100939.50;;;14.28;80.57
15750;BME280;7976;52.526;13.326;2023-04-29T11:44:33;100941.06;;;14.32;80.08
15750;BME280;7976;52.526;13.326;2023-04-29T11:47:02;100948.78;;;14.35;80.15
15750;BME280;7976;52.526;13.326;2023-04-29T11:49:31;100947.56;;;14.42;79.48
15750;BME280;7976;52.526;13.326;2023-04-29T11:51:58;100946.19;;;14.52;79.01
15750;BME280;7976;52.526;13.326;2023-04-29T11:54:26;100952.94;;;14.58;78.93
15750;BME280;7976;52.526;13.326;2023-04-29T11:56:53;100947.75;;;14.56;78.67
15750;BME280;7976;52.526;13.326;2023-04-29T11:59:21;100951.22;;;14.57;78.86
15750;BME280;7976;52.526;13.326;2023-04-29T12:01:48;100952.38;;;14.51;78.58
15750;BME280;7976;52.526;13.326;2023-04-29T12:04:15;100964.22;;;14.43;78.63
15750;BME280;7976;52.526;13.326;2023-04-29T12:06:43;100966.38;;;14.35;78.63
15750;BME280;7976;52.526;13.326;2023-04-29T12:09:11;100964.97;;;14.28;78.78
15750;BME280;7976;52.526;13.326;2023-04-29T12:11:40;100964.41;;;14.21;79.17
15750;BME280;7976;52.526;13.326;2023-04-29T12:14:07;100970.00;;;14.14;78.97
15750;BME280;7976;52.526;13.326;2023-04-29T12:16:34;100976.44;;;14.08;78.87
15750;BME280;7976;52.526;13.326;2023-04-29T12:19:02;100971.44;;;14.02;79.05
15750;BME280;7976;52.526;13.326;2023-04-29T12:21:29;100973.44;;;13.97;79.38
15750;BME280;7976;52.526;13.326;2023-04-29T12:24:02;100982.47;;;13.92;79.57
15750;BME280;7976;52.526;13.326;2023-04-29T12:26:29;100985.97;;;13.92;79.83
15750;BME280;7976;52.526;13.326;2023-04-29T12:28:58;100982.91;;;14.01;79.43
15750;BME280;7976;52.526;13.326;2023-04-29T12:31:32;100979.47;;;14.18;79.66
15750;BME280;7976;52.526;13.326;2023-04-29T12:34:02;100990.00;;;14.36;79.13
15750;BME280;7976;52.526;13.326;2023-04-29T12:36:29;100983.38;;;14.46;78.30
15750;BME280;7976;52.526;13.326;2023-04-29T12:38:59;100988.56;;;14.48;77.96
15750;BME280;7976;52.526;13.326;2023-04-29T12:41:37;100995.50;;;14.49;77.63
15750;BME280;7976;52.526;13.326;2023-04-29T12:44:05;100987.25;;;14.56;77.77
15750;BME280;7976;52.526;13.326;2023-04-29T12:46:37;100985.94;;;14.65;77.59
15750;BME280;7976;52.526;13.326;2023-04-29T12:49:05;100982.91;;;14.72;77.27
15750;BME280;7976;52.526;13.326;2023-04-29T12:51:34;100991.28;;;14.80;76.92
15750;BME280;7976;52.526;13.326;2023-04-29T12:54:03;100995.94;;;14.92;76.47
15750;BME280;7976;52.526;13.326;2023-04-29T12:56:31;100991.53;;;15.10;75.83
15750;BME280;7976;52.526;13.326;2023-04-29T12:59:04;101004.66;;;15.27;75.70
15750;BME280;7976;52.526;13.326;2023-04-29T13:01:33;100989.88;;;15.42;75.10
15750;BME280;7976;52.526;13.326;2023-04-29T13:04:00;100999.00;;;15.52;74.49